Бежица

Карта отелей и гостиниц, располагающихся рядом с аэропортом Бежица :

Бежица Брянская область 53° 20' 17.5812" N, 34° 14' 3.3" E
Бежица Брянская область 53° 20' 17.5812" N, 34° 14' 3.3" E
Код аэродрома ИКАО
ZEA3
Код аэродрома RU
ЗЕА3
Координаты
N53.33822° E034.23425°
Превышение над уровнем моря
158
Основная полоса
08/26
Курс магнитный
083,5/263,5
Длина основной ВПП
800
Ширина основной ВПП
60
Покрытие основной ВПП
Нетвёрдое (грунт)
Освещение ВПП
Нет
Тип: 
Аэродром
Класс аэродрома: 
Принадлежность: 
АОН
Статус: 
Действующий
Сайт: 
E-mail аэродрома: 
bask32@yandex.ru
Страна: 
Россия
Регион: 
Брянская область
Город: 
Дополнительная информация: 
Оператор: НОУ «Брянский АСК ДОСААФ России» (241035, г. Брянск, ул. Ульянова, 42). ВС до 5700 кг. АНП ПП зарегистрирован в МТУ ВТ ЦР ФАВТ 20 мар 2014 №ЦП3-351.

Найти трансфер

С помощью этой формы Вы можете найти трансфер из аэропорта Бежица в город, аэропорт или вокзал:

Карта места

Javascript is required to view this map.

Погода в аэропортах:

Авиационная погода в Киеве

Регион: 
Погода METAR: 
UKKK 281300Z 12004MPS 090V150 0550 0450E R08/0800N FG VV001 05/05 Q1002 NOSIG
Время наблюдения
2021-11-28T13:00:00Z
Температура C
5.0
Точка росы
5.0
Направление ветра
120
Скорость ветра (узлы)
8
Метео видимость
0.34
Явления погоды
FG
Условия полета
LIFR
Аэропорт подробнее: 

Авиационная погода в Борисполе

Регион: 
Погода METAR: 
UKBB 281300Z 12005MPS 0750 0500W R36R/1000D R36L/0900D PRFG OVC001 04/04 Q1003 TEMPO 0300 FG VV001
Время наблюдения
2021-11-28T13:00:00Z
Температура C
4.0
Точка росы
4.0
Направление ветра
120
Скорость ветра (узлы)
10
Метео видимость
0.47
Явления погоды
PRFG
Условия полета
LIFR
Аэропорт подробнее: 

Авиационная погода в Угольном

Регион: 
Погода METAR: 
UHMA 281300Z 02002MPS 9000 -SN FEW027 BKN038 M19/M21 Q1019 R01/////// TEMPO 3000 -SN RMK TDZ R01/02002MPS END R01/04001G02MPS QFE760/1014
Время наблюдения
2021-11-28T13:00:00Z
Температура C
-19.0
Точка росы
-21.0
Направление ветра
20
Скорость ветра (узлы)
4
Метео видимость
5.59
Явления погоды
-SN
Условия полета
VFR
Аэропорт подробнее: 

Авиационная погода в Николаеве

Регион: 
Погода METAR: 
UKON 281300Z 13003MPS 2600 -SHRA BR BKN005 BKN///CB 12/12 Q1003 NOSIG
Время наблюдения
2021-11-28T13:00:00Z
Температура C
12.0
Точка росы
12.0
Направление ветра
130
Скорость ветра (узлы)
6
Метео видимость
1.62
Явления погоды
-SHRA BR
Условия полета
IFR